Date,TemperatureHighF,TemperatureAvgF,TemperatureLowF,DewpointHighF,DewpointAvgF,DewpointLowF,HumidityHigh,HumidityAvg,HumidityLow,PressureMaxIn,PressureMinIn,WindSpeedMaxMPH,WindSpeedAvgMPH,GustSpeedMaxMPH,PrecipitationSumIn
2013-1-1,24,21,19,-100,-100,-100,0,0,100,0.00,40.00,0,-999,0,0.00
2013-1-2,21,19,18,-100,-100,-100,0,0,100,0.00,40.00,0,-999,0,0.00
2013-1-3,25,20,15,-100,-100,-100,0,0,100,0.00,40.00,0,-999,0,0.00
2013-1-4,30,24,17,-100,-100,-100,0,0,100,0.00,40.00,0,-999,0,0.00
2013-1-5,28,25,21,-100,-100,-100,0,0,100,0.00,40.00,0,-999,0,0.00
2013-1-6,26,23,20,-100,-100,-100,0,0,100,0.00,40.00,0,-999,0,0.01
2013-1-7,32,26,23,-100,-100,-100,0,0,100,0.00,40.00,0,-999,0,0.02
2013-1-8,31,26,23,-100,-100,-100,0,0,100,0.00,40.00,0,-999,0,0.01
2013-1-9,32,29,24,-100,-100,-100,0,0,100,0.00,40.00,0,-999,0,0.01
2013-1-10,25,17,9,-100,-100,-100,0,0,100,0.00,40.00,0,-999,0,0.01
2013-1-11,19,13,10,-100,-100,-100,0,0,100,0.00,40.00,0,-999,0,0.01
2013-1-12,13,11,8,-100,-100,-100,0,0,100,0.00,40.00,0,-999,0,0.00
2013-1-13,18,13,10,-100,-100,-100,0,0,100,0.00,40.00,0,-999,0,0.00
2013-1-14,28,24,19,-100,-100,-100,0,0,100,0.00,40.00,0,-999,0,0.00
2013-1-15,39,34,27,-100,-100,-100,0,0,100,0.00,40.00,0,-999,0,0.00
2013-1-16,46,39,35,-100,-100,-100,0,0,100,0.00,40.00,0,-999,0,0.00
2013-1-17,43,39,35,-100,-100,-100,0,0,100,0.00,40.00,0,-999,0,0.00
2013-1-18,41,37,35,-100,-100,-100,0,0,100,0.00,40.00,0,-999,0,0.00
2013-1-19,41,38,34,-100,-100,-100,0,0,100,0.00,40.00,0,-999,0,0.00
2013-1-20,45,41,36,-100,-100,-100,0,0,100,0.00,40.00,0,-999,0,0.00
2013-1-21,44,39,35,-100,-100,-100,0,0,100,0.00,40.00,0,-999,0,0.00
2013-1-22,38,33,28,-100,-100,-100,0,0,100,0.00,40.00,0,-999,0,0.00
2013-1-23,32,28,24,-100,-100,-100,0,0,100,0.00,40.00,0,-999,0,0.01
2013-1-24,31,26,22,-100,-100,-100,0,0,100,0.00,40.00,0,-999,0,0.01
2013-1-25,34,30,27,-100,-100,-100,0,0,100,0.00,40.00,0,-999,0,0.00
2013-1-26,29,25,22,-100,-100,-100,0,0,100,0.00,40.00,0,-999,0,0.01
2013-1-27,29,24,21,-100,-100,-100,0,0,100,0.00,40.00,0,-999,0,0.00
2013-1-28,26,23,20,-100,-100,-100,0,0,100,0.00,40.00,0,-999,0,0.00
2013-1-29,30,26,22,-100,-100,-100,0,0,100,0.00,40.00,0,-999,0,0.00
2013-1-30,37,32,29,-100,-100,-100,0,0,100,0.00,40.00,0,-999,0,0.00
2013-1-31,36,33,30,-100,-100,-100,0,0,100,0.00,40.00,0,-999,0,0.00
2013-2-1,39,32,26,-100,-100,-100,0,0,100,0.00,40.00,0,-999,0,0.01
2013-2-2,40,35,31,-100,-100,-100,0,0,100,0.00,40.00,0,-999,0,0.00
2013-2-3,42,35,30,-100,-100,-100,0,0,100,0.00,40.00,0,-999,0,0.00
2013-2-4,39,34,30,-100,-100,-100,0,0,100,0.00,40.00,0,-999,0,0.00
2013-2-5,34,30,27,-100,-100,-100,0,0,100,0.00,40.00,0,-999,0,0.01
2013-2-6,32,27,23,-100,-100,-100,0,0,100,0.00,40.00,0,-999,0,0.01
2013-2-7,30,27,25,-100,-100,-100,0,0,100,0.00,40.00,0,-999,0,0.01
2013-2-8,31,27,24,-100,-100,-100,0,0,100,0.00,40.00,0,-999,0,0.01
2013-2-9,35,29,26,-100,-100,-100,0,0,100,0.00,40.00,0,-999,0,0.00
2013-2-10,35,29,25,-100,-100,-100,0,0,100,0.00,40.00,0,-999,0,0.00
2013-2-11,36,29,25,-100,-100,-100,0,0,100,0.00,40.00,0,-999,0,0.00
2013-2-12,34,30,26,-100,-100,-100,0,0,100,0.00,40.00,0,-999,0,0.00
2013-2-13,35,30,25,-100,-100,-100,0,0,100,0.00,40.00,0,-999,0,0.00
2013-2-14,35,29,24,-100,-100,-100,0,0,100,0.00,40.00,0,-999,0,0.00
2013-2-15,39,33,29,-100,-100,-100,0,0,100,0.00,40.00,0,-999,0,0.00
2013-2-16,35,31,26,-100,-100,-100,0,0,100,0.00,40.00,0,-999,0,0.00
2013-2-17,31,27,22,-100,-100,-100,0,0,100,0.00,40.00,0,-999,0,0.01
2013-2-18,26,24,20,-100,-100,-100,0,0,100,0.00,40.00,0,-999,0,0.00
2013-2-19,26,24,19,-100,-100,-100,0,0,100,0.00,40.00,0,-999,0,0.00
2013-2-20,30,22,16,-100,-100,-100,0,0,100,0.00,40.00,0,-999,0,0.01
2013-2-21,28,23,19,-100,-100,-100,0,0,100,0.00,40.00,0,-999,0,0.00
2013-2-22,29,26,22,-100,-100,-100,0,0,100,0.00,40.00,0,-999,0,0.01
2013-2-23,32,24,18,-100,-100,-100,0,0,100,0.00,40.00,0,-999,0,0.01
2013-2-24,30,24,21,-100,-100,-100,0,0,100,0.00,40.00,0,-999,0,0.00
2013-2-25,27,24,20,-100,-100,-100,0,0,100,0.00,40.00,0,-999,0,0.01
2013-2-26,31,24,19,-100,-100,-100,0,0,100,0.00,40.00,0,-999,0,0.01
2013-2-27,32,27,22,-100,-100,-100,0,0,100,0.00,40.00,0,-999,0,0.00
2013-2-28,33,29,27,-100,-100,-100,0,0,100,0.00,40.00,0,-999,0,0.01
2013-3-1,39,36,33,-100,-100,-100,0,0,100,0.00,40.00,0,-999,0,0.00
2013-3-2,40,35,29,-100,-100,-100,0,0,100,0.00,40.00,0,-999,0,0.00
2013-3-3,31,25,21,-100,-100,-100,0,0,100,0.00,40.00,0,-999,0,0.01
2013-3-4,31,25,21,-100,-100,-100,0,0,100,0.00,40.00,0,-999,0,0.01
2013-3-5,30,27,24,-100,-100,-100,0,0,100,0.00,40.00,0,-999,0,0.00
2013-3-6,32,29,27,-100,-100,-100,0,0,100,0.00,40.00,0,-999,0,0.02
2013-3-7,33,28,25,-100,-100,-100,0,0,100,0.00,40.00,0,-999,0,0.01
2013-3-8,36,29,24,-100,-100,-100,0,0,100,0.00,40.00,0,-999,0,0.01
2013-3-9,39,31,25,-100,-100,-100,0,0,100,0.00,40.00,0,-999,0,0.00
2013-3-10,38,33,28,-100,-100,-100,0,0,100,0.00,40.00,0,-999,0,0.00
2013-3-11,36,30,24,-100,-100,-100,0,0,100,0.00,40.00,0,-999,0,0.01
2013-3-12,38,33,27,-100,-100,-100,0,0,100,0.00,40.00,0,-999,0,0.00
2013-3-13,46,39,35,-100,-100,-100,0,0,100,0.00,40.00,0,-999,0,0.00
2013-3-14,45,39,36,-100,-100,-100,0,0,100,0.00,40.00,0,-999,0,0.00
2013-3-15,45,38,33,-100,-100,-100,0,0,100,0.00,40.00,0,-999,0,0.00
2013-3-16,37,33,26,-100,-100,-100,0,0,100,0.00,40.00,0,-999,0,0.00
2013-3-17,34,26,21,-100,-100,-100,0,0,100,0.00,40.00,0,-999,0,0.01
2013-3-18,33,25,19,-100,-100,-100,0,0,100,0.00,40.00,0,-999,0,0.00
2013-3-19,34,28,20,-100,-100,-100,0,0,100,0.00,40.00,0,-999,0,0.00
2013-3-20,34,31,25,-100,-100,-100,0,0,100,0.00,40.00,0,-999,0,0.02
2013-3-21,28,22,16,-100,-100,-100,0,0,100,0.00,40.00,0,-999,0,0.01
2013-3-22,29,21,16,-100,-100,-100,0,0,100,0.00,40.00,0,-999,0,0.01
2013-3-23,32,23,15,-100,-100,-100,0,0,100,0.00,40.00,0,-999,0,0.00
2013-3-24,33,24,18,-100,-100,-100,0,0,100,0.00,40.00,0,-999,0,0.00
2013-3-25,38,29,20,-100,-100,-100,0,0,100,0.00,40.00,0,-999,0,0.00
2013-3-26,42,35,27,-100,-100,-100,0,0,100,0.00,40.00,0,-999,0,0.00
2013-3-27,44,38,32,-100,-100,-100,0,0,100,0.00,40.00,0,-999,0,0.00
2013-3-28,45,38,33,-100,-100,-100,0,0,100,0.00,40.00,0,-999,0,0.00
2013-3-29,45,40,35,-100,-100,-100,0,0,100,0.00,40.00,0,-999,0,0.01
2013-3-30,49,43,38,-100,-100,-100,0,0,100,0.00,40.00,0,-999,0,0.01
2013-3-31,55,47,39,-100,-100,-100,0,0,100,0.00,40.00,0,-999,0,0.00
2013-4-1,56,50,44,-100,-100,-100,0,0,100,0.00,40.00,0,-999,0,0.00
2013-4-2,51,47,41,-100,-100,-100,0,0,100,0.00,40.00,0,-999,0,0.00
2013-4-3,49,43,36,-100,-100,-100,0,0,100,0.00,40.00,0,-999,0,0.00
2013-4-4,44,40,37,-100,-100,-100,0,0,100,0.00,40.00,0,-999,0,0.02
2013-4-5,42,37,34,-100,-100,-100,0,0,100,0.00,40.00,0,-999,0,0.02
2013-4-6,40,35,32,-100,-100,-100,0,0,100,0.00,40.00,0,-999,0,0.02
2013-4-7,35,30,29,-100,-100,-100,0,0,100,0.00,40.00,0,-999,0,0.04
2013-4-8,35,31,27,-100,-100,-100,0,0,100,0.00,40.00,0,-999,0,0.01
2013-4-9,36,33,29,-100,-100,-100,0,0,100,0.00,40.00,0,-999,0,0.00
2013-4-10,41,36,32,-100,-100,-100,0,0,100,0.00,40.00,0,-999,0,0.00
2013-4-11,42,35,30,-100,-100,-100,0,0,100,0.00,40.00,0,-999,0,0.01
2013-4-12,34,31,28,-100,-100,-100,0,0,100,0.00,40.00,0,-999,0,0.01
2013-4-13,35,28,19,-100,-100,-100,0,0,100,0.00,40.00,0,-999,0,0.01
2013-4-14,33,27,24,-100,-100,-100,0,0,100,0.00,40.00,0,-999,0,0.01
2013-4-15,32,27,24,-100,-100,-100,0,0,100,0.00,40.00,0,-999,0,0.01
2013-4-16,33,27,20,-100,-100,-100,0,0,100,0.00,40.00,0,-999,0,0.00
2013-4-17,41,32,24,-100,-100,-100,0,0,100,0.00,40.00,0,-999,0,0.00
2013-4-18,44,36,29,-100,-100,-100,0,0,100,0.00,40.00,0,-999,0,0.00
2013-4-19,47,41,36,-100,-100,-100,0,0,100,0.00,40.00,0,-999,0,0.00
2013-4-20,47,39,32,-100,-100,-100,0,0,100,0.00,40.00,0,-999,0,0.00
2013-4-21,35,30,26,-100,-100,-100,0,0,100,0.00,40.00,0,-999,0,0.01
2013-4-22,42,33,24,-100,-100,-100,0,0,100,0.00,40.00,0,-999,0,0.01
2013-4-23,45,38,30,-100,-100,-100,0,0,100,0.00,40.00,0,-999,0,0.00
2013-4-24,48,45,40,-100,-100,-100,0,0,100,0.00,40.00,0,-999,0,0.00
2013-4-25,54,48,37,-100,-100,-100,0,0,100,0.00,40.00,0,-999,0,0.00
2013-4-26,58,50,43,-100,-100,-100,0,0,100,0.00,40.00,0,-999,0,0.00
2013-4-27,51,44,38,-100,-100,-100,0,0,100,0.00,40.00,0,-999,0,0.01
2013-4-28,46,39,34,-100,-100,-100,0,0,100,0.00,40.00,0,-999,0,0.01
2013-4-29,37,32,24,-100,-100,-100,0,0,100,0.00,40.00,0,-999,0,0.01
2013-4-30,37,29,23,-100,-100,-100,0,0,100,0.00,40.00,0,-999,0,0.00
2013-5-1,44,36,27,-100,-100,-100,0,0,100,0.00,40.00,0,-999,0,0.01
2013-5-2,51,43,34,-100,-100,-100,0,0,100,0.00,40.00,0,-999,0,0.00
2013-5-3,54,46,37,-100,-100,-100,0,0,100,0.00,40.00,0,-999,0,0.00
2013-5-4,57,49,43,-100,-100,-100,0,0,100,0.00,40.00,0,-999,0,0.00
2013-5-5,62,54,47,-100,-100,-100,0,0,100,0.00,40.00,0,-999,0,0.00
2013-5-6,65,58,51,-100,-100,-100,0,0,100,0.00,40.00,0,-999,0,0.00
2013-5-7,69,60,53,-100,-100,-100,0,0,100,0.00,40.00,0,-999,0,0.00
2013-5-8,68,61,53,-100,-100,-100,0,0,100,0.00,40.00,0,-999,0,0.00
2013-5-9,68,62,57,-100,-100,-100,0,0,100,0.00,40.00,0,-999,0,0.00
2013-5-10,69,62,56,-100,-100,-100,0,0,100,0.00,40.00,0,-999,0,0.00
2013-5-11,67,60,54,-100,-100,-100,0,0,100,0.00,40.00,0,-999,0,0.01
2013-5-12,58,54,47,-100,-100,-100,0,0,100,0.00,40.00,0,-999,0,0.01
2013-5-13,47,42,33,-100,-100,-100,0,0,100,0.00,40.00,0,-999,0,0.02
2013-5-14,47,40,31,-100,-100,-100,0,0,100,0.00,40.00,0,-999,0,0.01
2013-5-15,52,44,38,-100,-100,-100,0,0,100,0.00,40.00,0,-999,0,0.00
2013-5-16,49,43,39,-100,-100,-100,0,0,100,0.00,40.00,0,-999,0,0.01
2013-5-17,54,43,40,-100,-100,-100,0,0,100,0.00,40.00,0,-999,0,0.01
2013-5-18,44,42,39,-100,-100,-100,0,0,100,0.00,40.00,0,-999,0,0.01
2013-5-19,53,45,39,-100,-100,-100,0,0,100,0.00,40.00,0,-999,0,0.00
2013-5-20,55,49,43,-100,-100,-100,0,0,100,0.00,40.00,0,-999,0,0.00
2013-5-21,49,41,34,-100,-100,-100,0,0,100,0.00,40.00,0,-999,0,0.04
2013-5-22,35,33,31,-100,-100,-100,0,0,100,0.00,40.00,0,-999,0,0.02
2013-5-23,40,34,30,-100,-100,-100,0,0,100,0.00,40.00,0,-999,0,0.01
2013-5-24,42,36,33,-100,-100,-100,0,0,100,0.00,40.00,0,-999,0,0.01
2013-5-25,46,39,34,-100,-100,-100,0,0,100,0.00,40.00,0,-999,0,0.01
2013-5-26,50,44,37,-100,-100,-100,0,0,100,0.00,40.00,0,-999,0,0.00
2013-5-27,48,42,39,-100,-100,-100,0,0,100,0.00,40.00,0,-999,0,0.02
2013-5-28,48,42,37,-100,-100,-100,0,0,100,0.00,40.00,0,-999,0,0.01
2013-5-29,44,40,38,-100,-100,-100,0,0,100,0.00,40.00,0,-999,0,0.01
2013-5-30,47,41,35,-100,-100,-100,0,0,100,0.00,40.00,0,-999,0,0.01
2013-5-31,51,44,38,-100,-100,-100,0,0,100,0.00,40.00,0,-999,0,0.01
2013-6-1,53,46,40,-100,-100,-100,0,0,100,0.00,40.00,0,-999,0,0.00
2013-6-2,53,45,40,-100,-100,-100,0,0,100,0.00,40.00,0,-999,0,0.01
2013-6-3,53,45,41,-100,-100,-100,0,0,100,0.00,40.00,0,-999,0,0.02
2013-6-4,60,52,44,-100,-100,-100,0,0,100,0.00,40.00,0,-999,0,0.01
2013-6-5,65,57,49,-100,-100,-100,0,0,100,0.00,40.00,0,-999,0,0.00
2013-6-6,67,59,48,-100,-100,-100,0,0,100,0.00,40.00,0,-999,0,0.00
2013-6-7,64,56,48,-100,-100,-100,0,0,100,0.00,40.00,0,-999,0,0.01
2013-6-8,63,53,43,-100,-100,-100,0,0,100,0.00,40.00,0,-999,0,0.01
2013-6-9,58,50,43,-100,-100,-100,0,0,100,0.00,40.00,0,-999,0,0.01
2013-6-10,60,50,41,-100,-100,-100,0,0,100,0.00,40.00,0,-999,0,0.01
2013-6-11,55,50,43,-100,-100,-100,0,0,100,0.00,40.00,0,-999,0,0.01
2013-6-12,54,45,37,-100,-100,-100,0,0,100,0.00,40.00,0,-999,0,0.01
2013-6-13,49,43,37,-100,-100,-100,0,0,100,0.00,40.00,0,-999,0,0.01
2013-6-14,54,46,40,-100,-100,-100,0,0,100,0.00,40.00,0,-999,0,0.01
2013-6-15,60,52,42,-100,-100,-100,0,0,100,0.00,40.00,0,-999,0,0.00
2013-6-16,68,60,51,-100,-100,-100,0,0,100,0.00,40.00,0,-999,0,0.00
2013-6-17,60,55,47,-100,-100,-100,0,0,100,0.00,40.00,0,-999,0,0.01
2013-6-18,50,47,44,-100,-100,-100,0,0,100,0.00,40.00,0,-999,0,0.02
2013-6-19,46,44,41,-100,-100,-100,0,0,100,0.00,40.00,0,-999,0,0.02
2013-6-20,41,40,38,-100,-100,-100,0,0,100,0.00,40.00,0,-999,0,0.05
2013-6-22,51,48,43,-100,-100,-100,0,0,100,0.00,40.00,0,-999,0,0.00
2013-6-23,56,51,46,-100,-100,-100,0,0,100,0.00,40.00,0,-999,0,0.00
2013-6-24,49,47,44,-100,-100,-100,0,0,100,0.00,40.00,0,-999,0,0.03
2013-6-25,47,45,41,-100,-100,-100,0,0,100,0.00,40.00,0,-999,0,0.01
2013-6-26,52,48,42,-100,-100,-100,0,0,100,0.00,40.00,0,-999,0,0.00
2013-6-27,56,51,47,-100,-100,-100,0,0,100,0.00,40.00,0,-999,0,0.00
2013-6-28,67,61,51,-100,-100,-100,0,0,100,0.00,40.00,0,-999,0,0.00
2013-6-29,68,63,59,-100,-100,-100,0,0,100,0.00,40.00,0,-999,0,0.00
2013-6-30,73,65,58,-100,-100,-100,0,0,100,0.00,40.00,0,-999,0,0.01
2013-7-1,78,71,63,-100,-100,-100,0,0,100,0.00,40.00,0,-999,0,0.00
2013-7-2,81,74,66,-100,-100,-100,0,0,100,0.00,40.00,0,-999,0,0.00
2013-7-3,72,64,56,-100,-100,-100,0,0,100,0.00,40.00,0,-999,0,0.01
2013-7-4,69,62,56,-100,-100,-100,0,0,100,0.00,40.00,0,-999,0,0.01
2013-7-5,63,57,51,-100,-100,-100,0,0,100,0.00,40.00,0,-999,0,0.01
2013-7-6,64,56,51,-100,-100,-100,0,0,100,0.00,40.00,0,-999,0,0.00
2013-7-7,65,58,49,-100,-100,-100,0,0,100,0.00,40.00,0,-999,0,0.00
2013-7-8,66,55,49,-100,-100,-100,0,0,100,0.00,40.00,0,-999,0,0.01
2013-7-9,69,61,54,-100,-100,-100,0,0,100,0.00,40.00,0,-999,0,0.00
2013-7-10,73,63,55,-100,-100,-100,0,0,100,0.00,40.00,0,-999,0,0.00
2013-7-11,64,56,47,-100,-100,-100,0,0,100,0.00,40.00,0,-999,0,0.02
2013-7-12,58,49,43,-100,-100,-100,0,0,100,0.00,40.00,0,-999,0,0.01
2013-7-13,62,53,44,-100,-100,-100,0,0,100,0.00,40.00,0,-999,0,0.01
2013-7-14,68,58,49,-100,-100,-100,0,0,100,0.00,40.00,0,-999,0,0.00
2013-7-15,62,51,43,-100,-100,-100,0,0,100,0.00,40.00,0,-999,0,0.01
2013-7-16,72,60,47,-100,-100,-100,0,0,100,0.00,40.00,0,-999,0,0.01
2013-7-17,67,61,50,-100,-100,-100,0,0,100,0.00,40.00,0,-999,0,0.03
2013-7-18,71,64,53,-100,-100,-100,0,0,100,0.00,40.00,0,-999,0,0.02
2013-7-19,74,67,59,-100,-100,-100,0,0,100,0.00,40.00,0,-999,0,0.00
2013-7-20,76,66,58,-100,-100,-100,0,0,100,0.00,40.00,0,-999,0,0.00
2013-7-21,74,66,59,-100,-100,-100,0,0,100,0.00,40.00,0,-999,0,0.00
2013-7-22,76,66,58,-100,-100,-100,0,0,100,0.00,40.00,0,-999,0,0.00
2013-7-23,76,68,59,-100,-100,-100,0,0,100,0.00,40.00,0,-999,0,0.00
2013-7-24,77,69,62,-100,-100,-100,0,0,100,0.00,40.00,0,-999,0,0.00
2013-7-25,77,70,60,-100,-100,-100,0,0,100,0.00,40.00,0,-999,0,0.00
2013-7-26,76,68,59,-100,-100,-100,0,0,100,0.00,40.00,0,-999,0,0.01
2013-7-27,68,60,52,-100,-100,-100,0,0,100,0.00,40.00,0,-999,0,0.01
2013-7-28,66,59,52,-100,-100,-100,0,0,100,0.00,40.00,0,-999,0,0.01
2013-7-29,66,59,51,-100,-100,-100,0,0,100,0.00,40.00,0,-999,0,0.01
2013-7-30,68,61,55,-100,-100,-100,0,0,100,0.00,40.00,0,-999,0,0.00
2013-7-31,71,64,57,-100,-100,-100,0,0,100,0.00,40.00,0,-999,0,0.00
2013-8-1,69,56,49,-100,-100,-100,0,0,100,0.00,40.00,0,-999,0,0.02
2013-8-2,55,51,49,-100,-100,-100,0,0,100,0.00,40.00,0,-999,0,0.04
2013-8-3,58,53,50,-100,-100,-100,0,0,100,0.00,40.00,0,-999,0,0.00
2013-8-4,66,58,51,-100,-100,-100,0,0,100,0.00,40.00,0,-999,0,0.00
2013-8-5,70,62,55,-100,-100,-100,0,0,100,0.00,40.00,0,-999,0,0.00
2013-8-6,73,66,58,-100,-100,-100,0,0,100,0.00,40.00,0,-999,0,0.00
2013-8-7,73,65,57,-100,-100,-100,0,0,100,0.00,40.00,0,-999,0,0.00
2013-8-8,75,66,61,-100,-100,-100,0,0,100,0.00,40.00,0,-999,0,0.00
2013-8-9,75,69,63,-100,-100,-100,0,0,100,0.00,40.00,0,-999,0,0.00
2013-8-10,73,66,58,-100,-100,-100,0,0,100,0.00,40.00,0,-999,0,0.01
2013-8-11,69,62,54,-100,-100,-100,0,0,100,0.00,40.00,0,-999,0,0.01
2013-8-12,72,63,54,-100,-100,-100,0,0,100,0.00,40.00,0,-999,0,0.01
2013-8-13,73,63,56,-100,-100,-100,0,0,100,0.00,40.00,0,-999,0,0.00
2013-8-14,74,65,56,-100,-100,-100,0,0,100,0.00,40.00,0,-999,0,0.00
2013-8-15,69,63,57,-100,-100,-100,0,0,100,0.00,40.00,0,-999,0,0.01
2013-8-16,67,60,54,-100,-100,-100,0,0,100,0.00,40.00,0,-999,0,0.01
2013-8-17,68,61,56,-100,-100,-100,0,0,100,0.00,40.00,0,-999,0,0.00
2013-8-18,68,62,54,-100,-100,-100,0,0,100,0.00,40.00,0,-999,0,0.00
2013-8-19,66,59,53,-100,-100,-100,0,0,100,0.00,40.00,0,-999,0,0.00
2013-8-20,65,55,48,-100,-100,-100,0,0,100,0.00,40.00,0,-999,0,0.01
2013-8-21,69,59,51,-100,-100,-100,0,0,100,0.00,40.00,0,-999,0,0.00
2013-8-22,72,64,56,-100,-100,-100,0,0,100,0.00,40.00,0,-999,0,0.00
2013-8-23,65,59,50,-100,-100,-100,0,0,100,0.00,40.00,0,-999,0,0.01
2013-8-24,62,56,53,-100,-100,-100,0,0,100,0.00,40.00,0,-999,0,0.01
2013-8-25,65,57,48,-100,-100,-100,0,0,100,0.00,40.00,0,-999,0,0.01
2013-8-26,53,50,47,-100,-100,-100,0,0,100,0.00,40.00,0,-999,0,0.01
2013-8-27,60,52,49,-100,-100,-100,0,0,100,0.00,40.00,0,-999,0,0.00
2013-8-28,68,64,58,-100,-100,-100,0,0,100,0.00,40.00,0,-999,0,0.00
2013-8-29,64,58,52,-100,-100,-100,0,0,100,0.00,40.00,0,-999,0,0.01
2013-8-30,61,55,48,-100,-100,-100,0,0,100,0.00,40.00,0,-999,0,0.02
2013-8-31,67,56,49,-100,-100,-100,0,0,100,0.00,40.00,0,-999,0,0.00
2013-9-1,75,64,56,-100,-100,-100,0,0,100,0.00,40.00,0,-999,0,0.00
2013-9-2,69,63,58,-100,-100,-100,0,0,100,0.00,40.00,0,-999,0,0.01
2013-9-3,69,61,56,-100,-100,-100,0,0,100,0.00,40.00,0,-999,0,0.00
2013-9-4,68,62,55,-100,-100,-100,0,0,100,0.00,40.00,0,-999,0,0.00
2013-9-5,67,63,59,-100,-100,-100,0,0,100,0.00,40.00,0,-999,0,0.00
2013-9-6,54,49,45,-100,-100,-100,0,0,100,0.00,40.00,0,-999,0,0.03
2013-9-7,50,47,45,-100,-100,-100,0,0,100,0.00,40.00,0,-999,0,0.01
2013-9-8,62,53,45,-100,-100,-100,0,0,100,0.00,40.00,0,-999,0,0.00
2013-9-9,67,60,53,-100,-100,-100,0,0,100,0.00,40.00,0,-999,0,0.00
2013-9-10,70,62,55,-100,-100,-100,0,0,100,0.00,40.00,0,-999,0,0.00
2013-9-11,74,68,62,-100,-100,-100,0,0,100,0.00,40.00,0,-999,0,0.00
2013-9-12,75,68,65,-100,-100,-100,0,0,100,0.00,40.00,0,-999,0,0.00
2013-9-13,75,67,62,-100,-100,-100,0,0,100,0.00,40.00,0,-999,0,0.01
2013-9-14,74,67,62,-100,-100,-100,0,0,100,0.00,40.00,0,-999,0,0.00
2013-9-15,66,63,52,-100,-100,-100,0,0,100,0.00,40.00,0,-999,0,0.00
2013-9-16,54,50,47,-100,-100,-100,0,0,100,0.00,40.00,0,-999,0,1.27
2013-9-17,53,46,41,-100,-100,-100,0,0,100,0.00,40.00,0,-999,0,0.02
2013-9-18,44,42,41,-100,-100,-100,0,0,100,0.00,40.00,0,-999,0,0.02
2013-9-19,54,47,41,-100,-100,-100,0,0,100,0.00,40.00,0,-999,0,0.00
2013-9-20,59,54,48,-100,-100,-100,0,0,100,0.00,40.00,0,-999,0,0.00
2013-9-21,52,48,44,-100,-100,-100,0,0,100,0.00,40.00,0,-999,0,0.01
2013-9-22,44,42,40,-100,-100,-100,0,0,100,0.00,40.00,0,-999,0,0.02
2013-9-23,43,38,36,-100,-100,-100,0,0,100,0.00,40.00,0,-999,0,0.01
2013-9-24,44,39,36,-100,-100,-100,0,0,100,0.00,40.00,0,-999,0,0.00
2013-9-25,45,39,36,-100,-100,-100,0,0,100,0.00,40.00,0,-999,0,0.01
2013-9-26,42,38,35,-100,-100,-100,0,0,100,0.00,40.00,0,-999,0,0.01
2013-9-27,38,36,35,-100,-100,-100,0,0,100,0.00,40.00,0,-999,0,0.01
2013-9-28,45,40,36,-100,-100,-100,0,0,100,0.00,40.00,0,-999,0,0.02
2013-9-29,39,37,34,-100,-100,-100,0,0,100,0.00,40.00,0,-999,0,0.03
2013-9-30,38,34,31,-100,-100,-100,0,0,100,0.00,40.00,0,-999,0,0.03
2013-10-1,38,35,33,-100,-100,-100,0,0,100,0.00,40.00,0,-999,0,0.00
2013-10-2,35,34,32,-100,-100,-100,0,0,100,0.00,40.00,0,-999,0,0.01
2013-10-3,41,36,31,-100,-100,-100,0,0,100,0.00,40.00,0,-999,0,0.01
2013-10-4,44,40,34,-100,-100,-100,0,0,100,0.00,40.00,0,-999,0,0.00
2013-10-5,47,42,36,-100,-100,-100,0,0,100,0.00,40.00,0,-999,0,0.00
2013-10-6,51,46,41,-100,-100,-100,0,0,100,0.00,40.00,0,-999,0,0.00
2013-10-7,48,42,40,-100,-100,-100,0,0,100,0.00,40.00,0,-999,0,0.01
2013-10-8,37,35,33,-100,-100,-100,0,0,100,0.00,40.00,0,-999,0,0.02
2013-10-9,43,36,31,-100,-100,-100,0,0,100,0.00,40.00,0,-999,0,0.01
2013-10-10,40,37,33,-100,-100,-100,0,0,100,0.00,40.00,0,-999,0,0.00
2013-10-11,39,35,32,-100,-100,-100,0,0,100,0.00,40.00,0,-999,0,0.01
2013-10-12,38,35,31,-100,-100,-100,0,0,100,0.00,40.00,0,-999,0,0.01
2013-10-13,39,35,32,-100,-100,-100,0,0,100,0.00,40.00,0,-999,0,0.00
2013-10-21,49,49,49,-100,-100,-100,0,0,100,0.00,40.00,0,-999,0,0.00
2013-10-22,53,48,45,-100,-100,-100,0,0,100,0.00,40.00,0,-999,0,0.00
2013-10-23,53,48,46,-100,-100,-100,0,0,100,0.00,40.00,0,-999,0,0.00
2013-10-24,53,50,46,-100,-100,-100,0,0,100,0.00,40.00,0,-999,0,0.00
2013-10-25,45,44,42,-100,-100,-100,0,0,100,0.00,40.00,0,-999,0,0.00
2013-10-26,50,44,41,-100,-100,-100,0,0,100,0.00,40.00,0,-999,0,0.00
2013-10-27,35,34,33,-100,-100,-100,0,0,100,0.00,40.00,0,-999,0,0.01
2013-11-12,39,36,34,-100,-100,-100,0,0,100,0.00,40.00,0,-999,0,0.00
2013-11-13,39,37,36,-100,-100,-100,0,0,100,0.00,40.00,0,-999,0,0.00
2013-11-14,36,32,29,-100,-100,-100,0,0,100,0.00,40.00,0,-999,0,0.00
2013-11-15,29,28,27,-100,-100,-100,0,0,100,0.00,40.00,0,-999,0,0.00
2013-11-16,30,27,25,-100,-100,-100,0,0,100,0.00,40.00,0,-999,0,0.00
2013-11-17,28,28,28,-100,-100,-100,0,0,100,0.00,40.00,0,-999,0,0.00
2013-11-18,34,32,31,-100,-100,-100,0,0,100,0.00,40.00,0,-999,0,0.00
2013-11-19,35,28,18,-100,-100,-100,0,0,100,0.00,40.00,0,-999,0,0.01
2013-11-20,19,14,8,-100,-100,-100,0,0,100,0.00,40.00,0,-999,0,0.01
2013-11-21,26,22,15,-100,-100,-100,0,0,100,0.00,40.00,0,-999,0,0.00
2013-11-22,31,28,22,-100,-100,-100,0,0,100,0.00,40.00,0,-999,0,0.00
2013-11-23,34,32,29,-100,-100,-100,0,0,100,0.00,40.00,0,-999,0,0.00
2013-11-24,40,38,35,-100,-100,-100,0,0,100,0.00,40.00,0,-999,0,0.00
2013-11-25,40,40,40,-100,-100,-100,0,0,100,0.00,40.00,0,-999,0,0.00
2013-11-26,36,34,31,-100,-100,-100,0,0,100,0.00,40.00,0,-999,0,0.00
2013-11-27,39,36,33,-100,-100,-100,0,0,100,0.00,40.00,0,-999,0,0.00
2013-11-28,39,36,34,-100,-100,-100,0,0,100,0.00,40.00,0,-999,0,0.00
2013-11-29,36,35,33,-100,-100,-100,0,0,100,0.00,40.00,0,-999,0,0.00
2013-11-30,38,38,38,-100,-100,-100,0,0,100,0.00,40.00,0,-999,0,0.00
2013-12-1,35,32,31,-100,-100,-100,0,0,100,0.00,40.00,0,-999,0,0.00
2013-12-2,22,19,12,-100,-100,-100,0,0,100,0.00,40.00,0,-999,0,0.01
2013-12-3,15,12,8,-100,-100,-100,0,0,100,0.00,40.00,0,-999,0,0.00
2013-12-4,9,6,3,-100,-100,-100,0,0,100,0.00,40.00,0,-999,0,0.00
2013-12-5,8,5,2,-100,-100,-100,0,0,100,0.00,40.00,0,-999,0,0.00
2013-12-6,4,0,-4,-100,-100,-100,0,0,100,0.00,40.00,0,-999,0,0.00
2013-12-7,5,-1,-6,-100,-100,-100,0,0,100,0.00,40.00,0,-999,0,0.00
2013-12-8,14,10,5,-100,-100,-100,0,0,100,0.00,40.00,0,-999,0,0.01
2013-12-9,8,8,8,-100,-100,-100,0,0,100,0.00,40.00,0,-999,0,0.00
2013-12-10,26,23,20,-100,-100,-100,0,0,100,0.00,40.00,0,-999,0,0.01
2013-12-11,23,21,19,-100,-100,-100,0,0,100,0.00,40.00,0,-999,0,0.00
2013-12-12,25,24,23,-100,-100,-100,0,0,100,0.00,40.00,0,-999,0,0.00
2013-12-13,35,35,35,-100,-100,-100,0,0,100,0.00,40.00,0,-999,0,0.00
2013-12-16,38,36,32,-100,-100,-100,0,0,100,0.00,40.00,0,-999,0,0.00
2013-12-17,34,33,31,-100,-100,-100,0,0,100,0.00,40.00,0,-999,0,0.00
2013-12-18,31,27,14,-100,-100,-100,0,0,100,0.00,40.00,0,-999,0,0.01
2013-12-19,23,16,10,-100,-100,-100,0,0,100,0.00,40.00,0,-999,0,0.00
2013-12-22,33,31,28,-100,-100,-100,0,0,100,0.00,40.00,0,-999,0,0.00
2013-12-23,32,30,26,-100,-100,-100,0,0,100,0.00,40.00,0,-999,0,0.00
2013-12-24,32,27,23,-100,-100,-100,0,0,100,0.00,40.00,0,-999,0,0.01
2013-12-25,27,24,21,-100,-100,-100,0,0,100,0.00,40.00,0,-999,0,0.00
2013-12-28,31,30,28,-100,-100,-100,0,0,100,0.00,40.00,0,-999,0,0.00
2013-12-29,36,31,28,-100,-100,-100,0,0,100,0.00,40.00,0,-999,0,0.00
2013-12-31,34,32,29,-100,-100,-100,0,0,100,0.00,40.00,0,-999,0,0.00
2014-1-1,35,31,29,-100,-100,-100,0,0,100,0.00,40.00,0,-999,0,0.00
2014-1-2,33,31,30,-100,-100,-100,0,0,100,0.00,40.00,0,-999,0,0.00